Portada
METAR-TAF:

METAR-TAF

Aeroports :

Ambon, Indonèsia

latitud: 03-42S, longitud: 128-05E, altitud: 12 m

Observació

L'informe es va fer fa 47 minuts, a les 16:00 UTC
Vent 5 kt del Oest/Nord-Oest
Temperatura 25°C
Humitat 94%
Pressió 1009 hPa
Visibilitat 10 km o més
Núvols disperses a una alçada de 1800 ft
pluja

METAR: WAPP 081600Z 30005KT 9999 -RA SCT018 25/24 Q1009 NOSIG

Hora: 01:47 (16:47 UTC)

Pronòstic

L'informe es va fer fa 5 hores i 47 minuts, a les 11:00 UTC
Pronòstic vàlid del 08 a les 12 UTC al 09 a les 12 UTC
Vent 7 kt del Sud/Sud-Est
Visibilitat: 9000 m
Núvols disperses a una alçada de 2000 ft
Temporalment
l' 09 a les 02 UTC al 09 a les 04 UTC
Cel ennuvolat a una alçada de 10700 ft

TAF: WAPP 081100Z 0812/0912 16007KT 9000 SCT020 TEMPO 0902/0904 500-RA BKN107

Observacions i pronòstics meteorològics de més de 4000 aeroports (METAR i TAF).

Les estacions disponibles són els punts grocs i vermells al mapa.

Posi el ratolí al punt desitjat per veure el nom de l'estació.

Feu clic per veure les observacions i els pronòstics meteorològics.

Per canviar el mapa: feu clic els botons verds amb una creu de color negre per apropar; al botó verd amb un guió per allunyar la imatge; o en les fletxes verdes per a mapes adjacents.


METAR-TAF: